createdAt,value
2023-03-29T00:02:03.122Z,101133.78
2023-03-29T00:04:29.851Z,101131.16
2023-03-29T00:06:58.146Z,101123.22
2023-03-29T00:09:24.788Z,101116.38
2023-03-29T00:11:51.319Z,101124.44
2023-03-29T00:14:17.969Z,101117.25
2023-03-29T00:16:44.583Z,101099.47
2023-03-29T00:19:11.274Z,101104.69
2023-03-29T00:21:37.858Z,101076.25
2023-03-29T00:24:06.330Z,101098.88
2023-03-29T00:26:32.903Z,101071.13
2023-03-29T00:28:59.693Z,101085.44
2023-03-29T00:31:26.358Z,101088.06
2023-03-29T00:33:53.129Z,101083.59
2023-03-29T00:36:19.696Z,101080.75
2023-03-29T00:38:46.364Z,101082.72
2023-03-29T00:41:14.709Z,101072.75
2023-03-29T00:43:58.868Z,101071.81
2023-03-29T00:46:27.257Z,101073.59
2023-03-29T00:48:57.837Z,101053.91
2023-03-29T00:51:29.818Z,101074.22
2023-03-29T00:53:58.520Z,101067.09
2023-03-29T00:56:29.735Z,101064.75
2023-03-29T00:59:00.570Z,101058.69
2023-03-29T01:01:31.966Z,101062.22
2023-03-29T01:04:03.476Z,101050.75
2023-03-29T01:06:34.356Z,101045.41
2023-03-29T01:09:04.205Z,101026.97
2023-03-29T01:11:37.718Z,101048.28
2023-03-29T01:14:05.315Z,101041.38
2023-03-29T01:16:35.119Z,101035.75
2023-03-29T01:19:01.907Z,101031.72
2023-03-29T01:21:32.973Z,101024.06
2023-03-29T01:24:20.468Z,101021.72
2023-03-29T01:26:55.370Z,101028.47
2023-03-29T01:29:27.642Z,101021.75
2023-03-29T01:31:58.151Z,101019.00
2023-03-29T01:34:33.052Z,101005.19
2023-03-29T01:37:05.611Z,100979.75
2023-03-29T01:39:32.414Z,101005.75
2023-03-29T01:42:14.156Z,100989.47
2023-03-29T01:44:48.610Z,100994.78
2023-03-29T01:47:25.957Z,100974.97
2023-03-29T01:50:00.671Z,100949.41
2023-03-29T01:52:34.493Z,100987.22
2023-03-29T01:55:06.880Z,100992.66
2023-03-29T01:57:36.950Z,101001.22
2023-03-29T02:00:06.533Z,100972.25
2023-03-29T02:02:40.739Z,100992.47
2023-03-29T02:05:09.509Z,100989.94
2023-03-29T02:07:38.560Z,100993.59
2023-03-29T02:10:08.104Z,100992.19
2023-03-29T02:12:36.847Z,100996.00
2023-03-29T02:15:10.275Z,100986.09
2023-03-29T02:17:36.949Z,100990.69
2023-03-29T02:20:08.410Z,100992.28
2023-03-29T02:22:41.224Z,100980.00
2023-03-29T02:25:08.792Z,100980.00
2023-03-29T02:27:37.329Z,100970.75
2023-03-29T02:30:06.821Z,100980.00
2023-03-29T02:32:39.927Z,100965.44
2023-03-29T02:35:10.740Z,100971.97
2023-03-29T02:37:38.258Z,100967.38
2023-03-29T02:40:05.731Z,100950.75
2023-03-29T02:42:32.586Z,100964.66
2023-03-29T02:45:00.914Z,100929.91
2023-03-29T02:47:32.976Z,100962.81
2023-03-29T02:50:00.339Z,100953.25
2023-03-29T02:52:33.911Z,100949.72
2023-03-29T02:55:02.177Z,100932.75
2023-03-29T02:57:30.137Z,100919.75
2023-03-29T02:59:59.054Z,100926.22
2023-03-29T03:02:25.962Z,100938.84
2023-03-29T03:04:55.332Z,100946.72
2023-03-29T03:07:22.074Z,100953.63
2023-03-29T03:09:49.083Z,100949.81
2023-03-29T03:12:15.881Z,100929.47
2023-03-29T03:14:42.846Z,100942.50
2023-03-29T03:17:09.583Z,100948.69
2023-03-29T03:19:36.191Z,100943.44
2023-03-29T03:22:05.039Z,100947.09
2023-03-29T03:24:31.685Z,100953.38
2023-03-29T03:26:58.612Z,100938.59
2023-03-29T03:29:25.956Z,100934.28
2023-03-29T03:31:58.587Z,100916.28
2023-03-29T03:34:51.045Z,100935.03
2023-03-29T03:37:18.998Z,100936.13
2023-03-29T03:39:45.887Z,100888.53
2023-03-29T03:42:12.575Z,100936.72
2023-03-29T03:44:42.410Z,100913.66
2023-03-29T03:47:24.768Z,100896.56
2023-03-29T03:49:53.407Z,100932.09
2023-03-29T03:52:25.217Z,100930.53
2023-03-29T03:54:52.849Z,100924.47
2023-03-29T03:57:41.747Z,100922.78
2023-03-29T04:00:13.732Z,100887.31
2023-03-29T04:02:41.655Z,100926.69
2023-03-29T04:05:08.577Z,100932.78
2023-03-29T04:07:40.639Z,100921.63
2023-03-29T04:10:27.600Z,100901.31
2023-03-29T04:13:17.323Z,100916.38
2023-03-29T04:16:02.848Z,100920.31
2023-03-29T04:18:30.826Z,100920.66
2023-03-29T04:20:59.213Z,100886.19
2023-03-29T04:23:29.201Z,100808.31
2023-03-29T04:25:56.177Z,100904.19
2023-03-29T04:28:45.994Z,100904.94
2023-03-29T04:31:17.344Z,100854.56
2023-03-29T04:34:02.856Z,100905.66
2023-03-29T04:36:29.953Z,100899.03
2023-03-29T04:38:58.381Z,100899.78
2023-03-29T04:41:26.604Z,100906.31
2023-03-29T04:44:03.521Z,100907.88
2023-03-29T04:46:31.525Z,100909.56
2023-03-29T04:49:27.976Z,100906.00
2023-03-29T04:51:55.092Z,100903.31
2023-03-29T04:54:27.564Z,100895.44
2023-03-29T04:57:20.271Z,100894.50
2023-03-29T05:00:01.944Z,100905.00
2023-03-29T05:02:48.546Z,100900.47
2023-03-29T05:05:15.717Z,100896.72
2023-03-29T05:07:44.057Z,100884.94
2023-03-29T05:10:12.713Z,100894.81
2023-03-29T05:12:39.540Z,100892.84
2023-03-29T05:15:07.706Z,100893.78
2023-03-29T05:17:34.571Z,100890.16
2023-03-29T05:20:08.696Z,100892.66
2023-03-29T05:22:35.673Z,100890.78
2023-03-29T05:25:02.274Z,100893.31
2023-03-29T05:27:31.069Z,100890.38
2023-03-29T05:30:08.475Z,100887.22
2023-03-29T05:32:55.373Z,100895.31
2023-03-29T05:35:24.766Z,100887.66
2023-03-29T05:37:52.249Z,100882.31
2023-03-29T05:40:19.208Z,100885.88
2023-03-29T05:43:16.697Z,100864.94
2023-03-29T05:45:43.594Z,100891.84
2023-03-29T05:48:10.423Z,100869.47
2023-03-29T05:50:40.584Z,100881.78
2023-03-29T05:53:07.338Z,100892.94
2023-03-29T05:55:33.980Z,100859.50
2023-03-29T05:58:00.573Z,100886.44
2023-03-29T06:00:32.216Z,100870.25
2023-03-29T06:05:48.378Z,100881.28
2023-03-29T06:08:16.642Z,100885.19
2023-03-29T06:10:58.002Z,100873.34
2023-03-29T06:13:47.229Z,100868.78
2023-03-29T06:16:15.255Z,100876.69
2023-03-29T06:18:42.038Z,100865.25
2023-03-29T06:21:08.776Z,100867.84
2023-03-29T06:23:35.592Z,100875.63
2023-03-29T06:26:02.499Z,100878.16
2023-03-29T06:28:29.388Z,100884.38
2023-03-29T06:30:56.880Z,100882.34
2023-03-29T06:33:28.094Z,100888.25
2023-03-29T06:36:04.300Z,100891.50
2023-03-29T06:38:31.254Z,100890.13
2023-03-29T06:41:09.519Z,100888.00
2023-03-29T06:43:51.687Z,100906.63
2023-03-29T06:46:23.719Z,100901.38
2023-03-29T06:48:56.925Z,100896.81
2023-03-29T06:51:31.603Z,100899.88
2023-03-29T06:53:58.682Z,100884.09
2023-03-29T06:56:25.484Z,100899.00
2023-03-29T06:59:08.895Z,100895.31
2023-03-29T07:01:43.563Z,100869.66
2023-03-29T07:04:24.718Z,100891.16
2023-03-29T07:07:14.880Z,100895.31
2023-03-29T07:09:41.486Z,100903.22
2023-03-29T07:12:42.898Z,100901.91
2023-03-29T07:15:10.207Z,100901.81
2023-03-29T07:17:55.670Z,100894.31
2023-03-29T07:20:24.013Z,100892.53
2023-03-29T07:23:01.952Z,100878.19
2023-03-29T07:25:28.584Z,100898.97
2023-03-29T07:27:55.140Z,100902.84
2023-03-29T07:30:23.830Z,100885.66
2023-03-29T07:32:51.467Z,100895.28
2023-03-29T07:35:31.987Z,100904.13
2023-03-29T07:37:58.834Z,100901.28
2023-03-29T07:40:26.681Z,100901.16
2023-03-29T07:42:57.188Z,100884.28
2023-03-29T07:45:28.373Z,100890.91
2023-03-29T07:48:02.494Z,100898.44
2023-03-29T07:50:46.744Z,100904.38
2023-03-29T07:53:14.144Z,100876.69
2023-03-29T07:55:41.133Z,100891.38
2023-03-29T07:58:30.974Z,100890.31
2023-03-29T08:00:59.081Z,100901.38
2023-03-29T08:03:44.041Z,100902.25
2023-03-29T08:06:12.694Z,100884.63
2023-03-29T08:08:39.323Z,100897.00
2023-03-29T08:11:11.036Z,100892.09
2023-03-29T08:13:55.355Z,100895.84
2023-03-29T08:16:33.727Z,100893.34
2023-03-29T08:19:11.332Z,100869.16
2023-03-29T08:21:58.370Z,100887.47
2023-03-29T08:24:29.137Z,100884.16
2023-03-29T08:27:00.389Z,100881.41
2023-03-29T08:29:27.148Z,100886.41
2023-03-29T08:31:57.066Z,100887.13
2023-03-29T08:34:24.093Z,100885.44
2023-03-29T08:37:27.467Z,100887.59
2023-03-29T08:39:56.350Z,100879.91
2023-03-29T08:43:00.963Z,100887.69
2023-03-29T08:45:41.380Z,100886.81
2023-03-29T08:48:22.079Z,100897.59
2023-03-29T08:50:52.824Z,100892.78
2023-03-29T08:53:27.539Z,100893.13
2023-03-29T08:56:15.650Z,100891.28
2023-03-29T08:58:43.274Z,100894.59
2023-03-29T09:01:10.054Z,100886.13
2023-03-29T09:04:00.297Z,100836.81
2023-03-29T09:06:40.803Z,100885.38
2023-03-29T09:09:31.825Z,100899.47
2023-03-29T09:12:12.280Z,100879.88
2023-03-29T09:14:59.389Z,100884.53
2023-03-29T09:17:39.010Z,100877.16
2023-03-29T09:20:21.539Z,100887.03
2023-03-29T09:22:55.458Z,100873.25
2023-03-29T09:25:36.232Z,100859.75
2023-03-29T09:28:17.323Z,100883.66
2023-03-29T09:30:57.444Z,100864.28
2023-03-29T09:33:26.492Z,100885.91
2023-03-29T09:36:17.995Z,100884.09
2023-03-29T09:38:49.064Z,100877.50
2023-03-29T09:41:22.861Z,100880.75
2023-03-29T09:43:51.704Z,100869.78
2023-03-29T09:46:26.696Z,100870.09
2023-03-29T09:48:55.522Z,100838.59
2023-03-29T09:51:26.656Z,100865.16
2023-03-29T09:53:55.131Z,100870.34
2023-03-29T09:56:37.010Z,100866.19
2023-03-29T09:59:13.542Z,100875.09
2023-03-29T10:01:42.759Z,100872.19
2023-03-29T10:04:11.225Z,100876.75
2023-03-29T10:06:44.253Z,100867.41
2023-03-29T10:09:16.090Z,100863.66
2023-03-29T10:11:51.377Z,100853.19
2023-03-29T10:14:19.904Z,100848.78
2023-03-29T10:16:47.157Z,100829.25
2023-03-29T10:19:22.554Z,100853.66
2023-03-29T10:21:49.393Z,100839.44
2023-03-29T10:24:19.676Z,100852.13
2023-03-29T10:26:49.594Z,100845.31
2023-03-29T10:29:16.288Z,100856.56
2023-03-29T10:31:43.236Z,100851.13
2023-03-29T10:34:13.847Z,100850.16
2023-03-29T10:36:41.997Z,100823.25
2023-03-29T10:39:13.145Z,100852.63
2023-03-29T10:41:40.077Z,100855.81
2023-03-29T10:44:26.125Z,100847.88
2023-03-29T10:46:52.808Z,100840.03
2023-03-29T10:49:22.061Z,100839.19
2023-03-29T10:51:50.173Z,100841.41
2023-03-29T10:54:20.071Z,100829.53
2023-03-29T10:56:52.545Z,100827.53
2023-03-29T10:59:32.509Z,100836.97
2023-03-29T11:02:28.356Z,100837.72
2023-03-29T11:05:05.748Z,100843.41
2023-03-29T11:07:34.301Z,100837.38
2023-03-29T11:10:23.025Z,100828.22
2023-03-29T11:12:56.366Z,100829.53
2023-03-29T11:15:38.493Z,100823.31
2023-03-29T11:18:23.470Z,100815.94
2023-03-29T11:20:55.744Z,100810.25
2023-03-29T11:23:34.420Z,100806.94
2023-03-29T11:26:10.727Z,100806.19
2023-03-29T11:28:44.873Z,100813.97
2023-03-29T11:31:24.491Z,100809.97
2023-03-29T11:34:01.832Z,100808.53
2023-03-29T11:36:37.563Z,100810.22
2023-03-29T11:39:15.690Z,100799.56
2023-03-29T11:41:44.813Z,100794.78
2023-03-29T11:44:17.037Z,100798.19
2023-03-29T11:46:49.798Z,100792.22
2023-03-29T11:49:19.185Z,100780.41
2023-03-29T11:51:53.365Z,100754.28
2023-03-29T11:54:25.315Z,100777.03
2023-03-29T11:56:57.133Z,100760.06
2023-03-29T11:59:30.026Z,100772.38
2023-03-29T12:02:05.124Z,100739.78
2023-03-29T12:04:37.797Z,100766.91
2023-03-29T12:07:12.054Z,100755.44
2023-03-29T12:09:43.096Z,100754.59
2023-03-29T12:12:14.915Z,100756.25
2023-03-29T12:14:59.514Z,100754.06
2023-03-29T12:17:32.199Z,100727.94
2023-03-29T12:20:11.928Z,100758.25
2023-03-29T12:22:45.318Z,100748.78
2023-03-29T12:25:18.220Z,100747.56
2023-03-29T12:27:57.003Z,100745.41
2023-03-29T12:30:44.433Z,100753.88
2023-03-29T12:33:40.775Z,100749.16
2023-03-29T12:37:02.140Z,100735.13
2023-03-29T12:39:48.201Z,100728.63
2023-03-29T12:42:45.961Z,100719.19
2023-03-29T12:45:55.051Z,100712.75
2023-03-29T12:48:24.584Z,100712.47
2023-03-29T12:50:54.378Z,100699.84
2023-03-29T12:53:24.141Z,100698.41
2023-03-29T12:56:16.246Z,100696.56
2023-03-29T12:58:53.231Z,100681.66
2023-03-29T13:01:29.205Z,100712.47
2023-03-29T13:04:12.391Z,100707.16
2023-03-29T13:06:56.190Z,100704.38
2023-03-29T13:09:24.280Z,100705.47
2023-03-29T13:11:53.595Z,100677.88
2023-03-29T13:14:23.890Z,100691.44
2023-03-29T13:16:50.666Z,100692.22
2023-03-29T13:19:28.418Z,100683.56
2023-03-29T13:22:08.044Z,100673.28
2023-03-29T13:24:49.223Z,100657.50
2023-03-29T13:27:27.362Z,100675.88
2023-03-29T13:30:13.713Z,100664.06
2023-03-29T13:32:50.532Z,100671.72
2023-03-29T13:35:28.401Z,100671.50
2023-03-29T13:38:05.131Z,100679.50
2023-03-29T13:40:42.141Z,100669.91
2023-03-29T13:43:10.810Z,100680.59
2023-03-29T13:45:37.361Z,100678.72
2023-03-29T13:48:06.400Z,100663.91
2023-03-29T13:50:38.640Z,100675.81
2023-03-29T13:53:13.040Z,100671.63
2023-03-29T13:55:47.061Z,100667.25
2023-03-29T13:58:24.964Z,100667.09
2023-03-29T14:00:59.183Z,100670.09
2023-03-29T14:03:26.743Z,100659.06
2023-03-29T14:05:57.969Z,100654.25
2023-03-29T14:08:30.034Z,100655.97
2023-03-29T14:11:00.688Z,100607.13
2023-03-29T14:13:29.122Z,100626.19
2023-03-29T14:15:59.707Z,100611.91
2023-03-29T14:18:28.960Z,100625.31
2023-03-29T14:20:55.686Z,100612.34
2023-03-29T14:23:24.535Z,100614.28
2023-03-29T14:25:52.572Z,100625.72
2023-03-29T14:28:20.489Z,100619.25
2023-03-29T14:30:47.196Z,100603.66
2023-03-29T14:33:14.183Z,100604.97
2023-03-29T14:35:40.892Z,100595.84
2023-03-29T14:38:12.467Z,100604.88
2023-03-29T14:40:38.985Z,100598.63
2023-03-29T14:43:08.083Z,100593.00
2023-03-29T14:45:35.756Z,100590.50
2023-03-29T14:48:02.792Z,100594.53
2023-03-29T14:50:30.353Z,100601.88
2023-03-29T14:52:57.864Z,100591.75
2023-03-29T14:55:24.910Z,100604.13
2023-03-29T14:57:54.278Z,100599.88
2023-03-29T15:00:27.040Z,100600.41
2023-03-29T15:02:55.915Z,100594.13
2023-03-29T15:05:26.212Z,100593.88
2023-03-29T15:07:53.750Z,100603.91
2023-03-29T15:10:20.490Z,100597.56
2023-03-29T15:12:48.497Z,100559.88
2023-03-29T15:15:15.496Z,100589.81
2023-03-29T15:17:51.107Z,100566.88
2023-03-29T15:20:22.782Z,100584.56
2023-03-29T15:22:55.753Z,100574.97
2023-03-29T15:25:22.432Z,100572.81
2023-03-29T15:27:53.745Z,100577.94
2023-03-29T15:30:28.287Z,100559.31
2023-03-29T15:32:56.653Z,100554.50
2023-03-29T15:35:24.738Z,100564.09
2023-03-29T15:37:53.176Z,100552.59
2023-03-29T15:40:25.723Z,100548.72
2023-03-29T15:42:53.921Z,100540.31
2023-03-29T15:45:22.487Z,100542.63
2023-03-29T15:47:49.143Z,100539.69
2023-03-29T15:50:17.225Z,100537.06
2023-03-29T15:52:43.798Z,100521.41
2023-03-29T15:55:10.377Z,100526.75
2023-03-29T15:57:37.208Z,100529.81
2023-03-29T16:00:05.958Z,100513.31
2023-03-29T16:02:39.407Z,100512.22
2023-03-29T16:05:06.421Z,100511.53
2023-03-29T16:07:34.442Z,100509.53
2023-03-29T16:10:01.107Z,100505.94
2023-03-29T16:12:27.638Z,100495.72
2023-03-29T16:14:54.269Z,100485.06
2023-03-29T16:17:20.790Z,100469.06
2023-03-29T16:19:47.484Z,100497.31
2023-03-29T16:22:14.055Z,100492.69
2023-03-29T16:24:42.124Z,100476.94
2023-03-29T16:27:09.016Z,100451.03
2023-03-29T16:29:35.635Z,100478.22
2023-03-29T16:32:03.445Z,100465.16
2023-03-29T16:34:31.981Z,100476.47
2023-03-29T16:36:58.498Z,100462.03
2023-03-29T16:39:25.341Z,100457.31
2023-03-29T16:41:53.229Z,100455.03
2023-03-29T16:44:23.211Z,100456.56
2023-03-29T16:46:51.210Z,100430.38
2023-03-29T16:49:17.725Z,100455.09
2023-03-29T16:51:45.515Z,100449.78
2023-03-29T16:54:12.188Z,100450.47
2023-03-29T16:56:38.913Z,100442.84
2023-03-29T16:59:06.836Z,100450.00
2023-03-29T17:01:33.512Z,100418.97
2023-03-29T17:04:00.546Z,100444.38
2023-03-29T17:06:27.305Z,100450.41
2023-03-29T17:08:53.904Z,100451.88
2023-03-29T17:11:20.490Z,100443.75
2023-03-29T17:13:47.103Z,100429.66
2023-03-29T17:16:15.323Z,100431.94
2023-03-29T17:18:41.987Z,100394.78
2023-03-29T17:21:08.699Z,100446.47
2023-03-29T17:23:35.289Z,100450.66
2023-03-29T17:26:02.143Z,100448.19
2023-03-29T17:28:28.878Z,100448.56
2023-03-29T17:30:55.560Z,100445.88
2023-03-29T17:33:23.501Z,100439.91
2023-03-29T17:35:50.142Z,100432.91
2023-03-29T17:38:16.986Z,100448.09
2023-03-29T17:40:43.541Z,100458.91
2023-03-29T17:43:10.056Z,100445.00
2023-03-29T17:45:36.669Z,100449.13
2023-03-29T17:48:06.039Z,100441.31
2023-03-29T17:50:34.424Z,100435.34
2023-03-29T17:53:00.907Z,100446.69
2023-03-29T17:55:27.486Z,100446.69
2023-03-29T17:57:53.991Z,100450.53
2023-03-29T18:00:21.281Z,100446.34
2023-03-29T18:02:47.899Z,100438.88
2023-03-29T18:05:14.567Z,100436.88
2023-03-29T18:07:42.453Z,100426.25
2023-03-29T18:10:09.929Z,100431.91
2023-03-29T18:12:36.502Z,100435.06
2023-03-29T18:15:03.622Z,100432.38
2023-03-29T18:17:30.160Z,100433.72
2023-03-29T18:19:57.058Z,100432.03
2023-03-29T18:22:23.571Z,100425.84
2023-03-29T18:24:51.532Z,100437.13
2023-03-29T18:27:18.406Z,100442.25
2023-03-29T18:29:45.055Z,100439.41
2023-03-29T18:32:12.179Z,100429.28
2023-03-29T18:34:38.824Z,100405.66
2023-03-29T18:37:05.406Z,100437.22
2023-03-29T18:39:32.016Z,100446.97
2023-03-29T18:41:59.910Z,100442.00
2023-03-29T18:44:26.509Z,100434.97
2023-03-29T18:46:53.055Z,100429.78
2023-03-29T18:49:19.921Z,100427.78
2023-03-29T18:51:46.512Z,100424.09
2023-03-29T18:54:13.127Z,100432.69
2023-03-29T18:56:39.650Z,100422.72
2023-03-29T18:59:07.645Z,100401.41
2023-03-29T19:01:34.308Z,100425.31
2023-03-29T19:04:00.996Z,100428.59
2023-03-29T19:06:27.711Z,100425.72
2023-03-29T19:08:54.348Z,100422.03
2023-03-29T19:11:20.901Z,100419.19
2023-03-29T19:13:47.492Z,100412.50
2023-03-29T19:16:15.532Z,100406.00
2023-03-29T19:18:42.343Z,100400.81
2023-03-29T19:21:09.373Z,100402.63
2023-03-29T19:23:35.971Z,100401.25
2023-03-29T19:26:04.380Z,100396.78
2023-03-29T19:28:31.350Z,100389.41
2023-03-29T19:30:59.415Z,100385.56
2023-03-29T19:33:27.896Z,100375.50
2023-03-29T19:35:54.533Z,100397.56
2023-03-29T19:38:21.566Z,100389.47
2023-03-29T19:40:49.644Z,100387.28
2023-03-29T19:43:16.284Z,100379.63
2023-03-29T19:45:42.808Z,100380.94
2023-03-29T19:50:41.318Z,100355.31
2023-03-29T19:53:08.166Z,100356.28
2023-03-29T19:55:35.224Z,100363.25
2023-03-29T19:58:01.763Z,100363.53
2023-03-29T20:00:28.525Z,100360.53
2023-03-29T20:02:56.216Z,100347.38
2023-03-29T20:05:23.222Z,100346.31
2023-03-29T20:07:51.150Z,100347.97
2023-03-29T20:10:18.031Z,100343.81
2023-03-29T20:12:44.585Z,100336.69
2023-03-29T20:15:11.488Z,100335.13
2023-03-29T20:17:38.095Z,100327.84
2023-03-29T20:20:05.886Z,100332.91
2023-03-29T20:22:32.406Z,100325.13
2023-03-29T20:25:00.305Z,100320.69
2023-03-29T20:27:26.854Z,100307.72
2023-03-29T20:29:53.370Z,100306.00
2023-03-29T20:32:20.227Z,100305.44
2023-03-29T20:34:46.825Z,100303.41
2023-03-29T20:37:13.405Z,100302.72
2023-03-29T20:39:40.244Z,100302.31
2023-03-29T20:42:08.147Z,100302.63
2023-03-29T20:44:35.482Z,100290.13
2023-03-29T20:47:02.102Z,100288.22
2023-03-29T20:49:29.180Z,100282.84
2023-03-29T20:51:55.716Z,100284.50
2023-03-29T20:54:22.236Z,100246.78
2023-03-29T20:56:48.876Z,100276.50
2023-03-29T20:59:17.086Z,100276.13
2023-03-29T21:01:43.744Z,100271.78
2023-03-29T21:04:10.374Z,100272.78
2023-03-29T21:06:37.109Z,100253.25
2023-03-29T21:09:03.907Z,100273.38
2023-03-29T21:11:30.494Z,100239.69
2023-03-29T21:13:57.034Z,100252.75
2023-03-29T21:16:25.174Z,100257.59
2023-03-29T21:18:52.913Z,100257.34
2023-03-29T21:21:19.445Z,100251.78
2023-03-29T21:23:45.964Z,100247.94
2023-03-29T21:26:12.677Z,100254.25
2023-03-29T21:28:39.364Z,100228.72
2023-03-29T21:31:07.217Z,100247.56
2023-03-29T21:33:35.988Z,100239.09
2023-03-29T21:36:02.650Z,100238.84
2023-03-29T21:38:29.249Z,100242.06
2023-03-29T21:40:55.784Z,100239.16
2023-03-29T21:43:22.318Z,100244.75
2023-03-29T21:45:49.310Z,100195.22
2023-03-29T21:48:15.909Z,100224.03
2023-03-29T21:50:43.809Z,100217.09
2023-03-29T21:53:10.432Z,100211.56
2023-03-29T21:55:37.137Z,100212.66
2023-03-29T21:58:03.677Z,100173.41
2023-03-29T22:00:30.308Z,100202.81
2023-03-29T22:02:57.160Z,100200.31
2023-03-29T22:05:23.785Z,100217.69
2023-03-29T22:07:51.692Z,100202.16
2023-03-29T22:10:19.999Z,100192.41
2023-03-29T22:12:46.564Z,100196.88
2023-03-29T22:15:13.162Z,100205.47
2023-03-29T22:17:39.891Z,100189.34
2023-03-29T22:20:07.237Z,100203.66
2023-03-29T22:22:33.981Z,100204.06
2023-03-29T22:25:01.884Z,100204.06
2023-03-29T22:27:28.400Z,100211.00
2023-03-29T22:29:54.921Z,100217.53
2023-03-29T22:32:21.556Z,100222.13
2023-03-29T22:34:48.086Z,100216.97
2023-03-29T22:37:14.609Z,100220.75
2023-03-29T22:39:41.230Z,100205.88
2023-03-29T22:42:09.130Z,100217.41
2023-03-29T22:44:35.831Z,100213.66
2023-03-29T22:47:02.380Z,100218.22
2023-03-29T22:49:28.897Z,100184.66
2023-03-29T22:51:55.616Z,100202.03
2023-03-29T22:54:22.166Z,100206.19
2023-03-29T22:56:48.815Z,100200.47
2023-03-29T22:59:16.751Z,100189.38
2023-03-29T23:01:43.531Z,100193.13
2023-03-29T23:04:10.403Z,100185.66
2023-03-29T23:06:37.236Z,100182.72
2023-03-29T23:09:04.212Z,100170.22
2023-03-29T23:11:30.927Z,100175.22
2023-03-29T23:13:57.453Z,100167.31
2023-03-29T23:16:25.490Z,100152.34
2023-03-29T23:18:52.209Z,100167.59
2023-03-29T23:21:19.213Z,100165.69
2023-03-29T23:23:45.762Z,100157.50
2023-03-29T23:26:12.311Z,100172.72
2023-03-29T23:28:38.869Z,100165.41
2023-03-29T23:31:07.664Z,100164.69
2023-03-29T23:33:37.460Z,100151.50
2023-03-29T23:36:05.993Z,100168.31
2023-03-29T23:38:35.158Z,100167.88
2023-03-29T23:41:03.664Z,100165.41
2023-03-29T23:43:32.468Z,100160.50
2023-03-29T23:46:00.320Z,100160.97
2023-03-29T23:48:27.222Z,100166.38
2023-03-29T23:50:56.358Z,100161.22
2023-03-29T23:53:23.171Z,100164.16
2023-03-29T23:55:49.979Z,100141.13
2023-03-29T23:58:16.807Z,100131.41
